Airport ID:K65S
Update Time (UTC):09 JUL 20 18:10
Wind Speed (Knots):CALM
Wind Direction (Magnetic):
Temperature (°C):19
Dew Point (°C):11
Humidity (%):59
Altimeter (inHg):29.96
Density Altitude (Feet):
Visibility (Miles):10
Clouds (Hundreds of feet):CLR
Present Weather:NO PRECIPITATION
METAR:METAR K65S 091810Z AUTO 00000KT 10SM CLR 19/11 A2996 RMK AO2

The data displayed is for advisory purposes only and is not to be used for flight planning or operations.